sensor_id;sensor_type;location;lat;lon;timestamp;P1;durP1;ratioP1;P2;durP2;ratioP2
75912;SDS011;64592;52.168;21.040;2023-07-02T00:03:28;21.25;;;13.02;;
75912;SDS011;64592;52.168;21.040;2023-07-02T00:08:31;23.13;;;14.30;;
75912;SDS011;64592;52.168;21.040;2023-07-02T00:13:33;24.80;;;14.57;;
75912;SDS011;64592;52.168;21.040;2023-07-02T00:18:35;24.23;;;13.65;;
75912;SDS011;64592;52.168;21.040;2023-07-02T00:23:38;22.77;;;13.40;;
75912;SDS011;64592;52.168;21.040;2023-07-02T00:28:39;23.70;;;14.95;;
75912;SDS011;64592;52.168;21.040;2023-07-02T00:33:41;20.35;;;13.35;;
75912;SDS011;64592;52.168;21.040;2023-07-02T00:38:45;22.25;;;14.15;;
75912;SDS011;64592;52.168;21.040;2023-07-02T00:43:48;23.10;;;14.32;;
75912;SDS011;64592;52.168;21.040;2023-07-02T00:48:50;26.10;;;14.50;;
75912;SDS011;64592;52.168;21.040;2023-07-02T00:53:54;22.85;;;13.70;;
75912;SDS011;64592;52.168;21.040;2023-07-02T00:58:57;23.48;;;15.00;;
75912;SDS011;64592;52.168;21.040;2023-07-02T01:04:01;22.73;;;14.18;;
75912;SDS011;64592;52.168;21.040;2023-07-02T01:09:05;25.55;;;14.55;;
75912;SDS011;64592;52.168;21.040;2023-07-02T01:14:08;24.05;;;15.38;;
75912;SDS011;64592;52.168;21.040;2023-07-02T01:19:13;22.65;;;13.95;;
75912;SDS011;64592;52.168;21.040;2023-07-02T01:24:21;23.25;;;14.20;;
75912;SDS011;64592;52.168;21.040;2023-07-02T01:29:22;21.13;;;14.32;;
75912;SDS011;64592;52.168;21.040;2023-07-02T01:34:24;25.15;;;14.55;;
75912;SDS011;64592;52.168;21.040;2023-07-02T01:39:27;21.35;;;14.35;;
75912;SDS011;64592;52.168;21.040;2023-07-02T01:44:29;26.02;;;15.15;;
75912;SDS011;64592;52.168;21.040;2023-07-02T01:49:30;23.60;;;14.98;;
75912;SDS011;64592;52.168;21.040;2023-07-02T01:54:34;22.23;;;15.15;;
75912;SDS011;64592;52.168;21.040;2023-07-02T01:59:36;23.58;;;15.90;;
75912;SDS011;64592;52.168;21.040;2023-07-02T02:04:38;25.70;;;15.88;;
75912;SDS011;64592;52.168;21.040;2023-07-02T02:09:41;21.73;;;14.90;;
75912;SDS011;64592;52.168;21.040;2023-07-02T02:14:43;23.23;;;15.10;;
75912;SDS011;64592;52.168;21.040;2023-07-02T02:19:44;25.25;;;15.20;;
75912;SDS011;64592;52.168;21.040;2023-07-02T02:24:47;23.90;;;15.50;;
75912;SDS011;64592;52.168;21.040;2023-07-02T02:29:49;22.58;;;14.32;;
75912;SDS011;64592;52.168;21.040;2023-07-02T02:34:51;24.75;;;15.52;;
75912;SDS011;64592;52.168;21.040;2023-07-02T02:39:53;24.38;;;14.98;;
75912;SDS011;64592;52.168;21.040;2023-07-02T02:44:57;24.05;;;15.25;;
75912;SDS011;64592;52.168;21.040;2023-07-02T02:49:58;26.23;;;15.80;;
75912;SDS011;64592;52.168;21.040;2023-07-02T02:55:02;26.38;;;15.13;;
75912;SDS011;64592;52.168;21.040;2023-07-02T03:00:04;25.17;;;15.48;;
75912;SDS011;64592;52.168;21.040;2023-07-02T03:05:07;24.27;;;14.60;;
75912;SDS011;64592;52.168;21.040;2023-07-02T03:10:10;24.67;;;15.48;;
75912;SDS011;64592;52.168;21.040;2023-07-02T03:15:12;23.95;;;15.18;;
75912;SDS011;64592;52.168;21.040;2023-07-02T03:20:14;24.40;;;14.85;;
75912;SDS011;64592;52.168;21.040;2023-07-02T03:25:18;27.83;;;15.15;;
75912;SDS011;64592;52.168;21.040;2023-07-02T03:30:19;20.70;;;13.93;;
75912;SDS011;64592;52.168;21.040;2023-07-02T03:35:21;22.00;;;14.63;;
75912;SDS011;64592;52.168;21.040;2023-07-02T03:40:24;19.58;;;13.80;;
75912;SDS011;64592;52.168;21.040;2023-07-02T03:45:26;18.35;;;13.02;;
75912;SDS011;64592;52.168;21.040;2023-07-02T03:50:27;24.33;;;14.18;;
75912;SDS011;64592;52.168;21.040;2023-07-02T03:55:30;19.55;;;12.43;;
75912;SDS011;64592;52.168;21.040;2023-07-02T04:00:32;22.48;;;13.80;;
75912;SDS011;64592;52.168;21.040;2023-07-02T04:05:34;21.35;;;13.70;;
75912;SDS011;64592;52.168;21.040;2023-07-02T04:10:37;17.92;;;12.48;;
75912;SDS011;64592;52.168;21.040;2023-07-02T04:15:39;19.38;;;12.18;;
75912;SDS011;64592;52.168;21.040;2023-07-02T04:20:40;20.10;;;12.65;;
75912;SDS011;64592;52.168;21.040;2023-07-02T04:25:43;20.40;;;11.70;;
75912;SDS011;64592;52.168;21.040;2023-07-02T04:30:45;20.77;;;12.73;;
75912;SDS011;64592;52.168;21.040;2023-07-02T04:35:49;19.50;;;12.93;;
75912;SDS011;64592;52.168;21.040;2023-07-02T04:40:52;18.38;;;11.80;;
75912;SDS011;64592;52.168;21.040;2023-07-02T04:45:54;18.45;;;12.20;;
75912;SDS011;64592;52.168;21.040;2023-07-02T04:50:56;18.42;;;10.90;;
75912;SDS011;64592;52.168;21.040;2023-07-02T04:55:59;16.90;;;11.52;;
75912;SDS011;64592;52.168;21.040;2023-07-02T05:01:01;15.13;;;10.43;;
75912;SDS011;64592;52.168;21.040;2023-07-02T05:06:02;17.92;;;10.43;;
75912;SDS011;64592;52.168;21.040;2023-07-02T05:11:05;15.45;;;10.45;;
75912;SDS011;64592;52.168;21.040;2023-07-02T05:16:08;12.93;;;9.55;;
75912;SDS011;64592;52.168;21.040;2023-07-02T05:21:10;15.25;;;9.45;;
75912;SDS011;64592;52.168;21.040;2023-07-02T05:26:14;13.25;;;8.65;;
75912;SDS011;64592;52.168;21.040;2023-07-02T05:31:15;12.30;;;8.15;;
75912;SDS011;64592;52.168;21.040;2023-07-02T05:36:17;13.13;;;8.80;;
75912;SDS011;64592;52.168;21.040;2023-07-02T05:41:20;13.35;;;8.52;;
75912;SDS011;64592;52.168;21.040;2023-07-02T05:46:22;13.68;;;7.63;;
75912;SDS011;64592;52.168;21.040;2023-07-02T05:51:24;12.52;;;7.70;;
75912;SDS011;64592;52.168;21.040;2023-07-02T05:56:27;11.93;;;8.25;;
75912;SDS011;64592;52.168;21.040;2023-07-02T06:01:28;10.95;;;6.82;;
75912;SDS011;64592;52.168;21.040;2023-07-02T06:06:30;11.05;;;7.82;;
75912;SDS011;64592;52.168;21.040;2023-07-02T06:11:33;13.35;;;8.65;;
75912;SDS011;64592;52.168;21.040;2023-07-02T06:16:35;10.30;;;7.13;;
75912;SDS011;64592;52.168;21.040;2023-07-02T06:21:36;9.85;;;6.80;;
75912;SDS011;64592;52.168;21.040;2023-07-02T06:26:39;10.93;;;6.82;;
75912;SDS011;64592;52.168;21.040;2023-07-02T06:31:41;12.55;;;7.15;;
75912;SDS011;64592;52.168;21.040;2023-07-02T06:36:43;10.18;;;7.75;;
75912;SDS011;64592;52.168;21.040;2023-07-02T06:41:46;10.68;;;8.00;;
75912;SDS011;64592;52.168;21.040;2023-07-02T06:46:47;10.48;;;7.15;;
75912;SDS011;64592;52.168;21.040;2023-07-02T06:51:49;10.45;;;6.15;;
75912;SDS011;64592;52.168;21.040;2023-07-02T06:56:53;14.63;;;6.43;;
75912;SDS011;64592;52.168;21.040;2023-07-02T07:01:55;12.95;;;6.70;;
75912;SDS011;64592;52.168;21.040;2023-07-02T07:06:56;10.85;;;6.75;;
75912;SDS011;64592;52.168;21.040;2023-07-02T07:11:59;11.45;;;6.20;;
75912;SDS011;64592;52.168;21.040;2023-07-02T07:17:01;9.70;;;5.75;;
75912;SDS011;64592;52.168;21.040;2023-07-02T07:22:03;9.23;;;5.30;;
75912;SDS011;64592;52.168;21.040;2023-07-02T07:27:06;8.77;;;5.95;;
75912;SDS011;64592;52.168;21.040;2023-07-02T07:32:08;9.23;;;5.05;;
75912;SDS011;64592;52.168;21.040;2023-07-02T07:37:09;8.13;;;5.75;;
75912;SDS011;64592;52.168;21.040;2023-07-02T07:42:12;8.25;;;5.20;;
75912;SDS011;64592;52.168;21.040;2023-07-02T07:47:16;9.05;;;5.18;;
75912;SDS011;64592;52.168;21.040;2023-07-02T07:52:18;7.80;;;4.45;;
75912;SDS011;64592;52.168;21.040;2023-07-02T07:57:21;7.35;;;4.70;;
75912;SDS011;64592;52.168;21.040;2023-07-02T08:02:23;7.65;;;4.18;;
75912;SDS011;64592;52.168;21.040;2023-07-02T08:07:24;5.88;;;4.28;;
75912;SDS011;64592;52.168;21.040;2023-07-02T08:12:27;7.95;;;4.82;;
75912;SDS011;64592;52.168;21.040;2023-07-02T08:17:29;9.13;;;4.43;;
75912;SDS011;64592;52.168;21.040;2023-07-02T08:22:31;6.25;;;4.20;;
75912;SDS011;64592;52.168;21.040;2023-07-02T08:27:34;5.45;;;3.63;;
75912;SDS011;64592;52.168;21.040;2023-07-02T08:32:36;6.35;;;3.50;;
75912;SDS011;64592;52.168;21.040;2023-07-02T08:37:37;5.07;;;3.63;;
75912;SDS011;64592;52.168;21.040;2023-07-02T08:42:40;4.88;;;3.20;;
75912;SDS011;64592;52.168;21.040;2023-07-02T08:47:42;8.10;;;4.03;;
75912;SDS011;64592;52.168;21.040;2023-07-02T08:52:45;5.80;;;3.55;;
75912;SDS011;64592;52.168;21.040;2023-07-02T08:57:49;8.10;;;3.70;;
75912;SDS011;64592;52.168;21.040;2023-07-02T09:02:53;7.88;;;3.83;;
75912;SDS011;64592;52.168;21.040;2023-07-02T09:07:54;4.88;;;3.58;;
75912;SDS011;64592;52.168;21.040;2023-07-02T09:13:04;5.03;;;3.88;;
75912;SDS011;64592;52.168;21.040;2023-07-02T09:18:18;5.82;;;3.38;;
75912;SDS011;64592;52.168;21.040;2023-07-02T09:23:21;5.18;;;3.60;;
75912;SDS011;64592;52.168;21.040;2023-07-02T09:28:24;7.53;;;3.63;;
75912;SDS011;64592;52.168;21.040;2023-07-02T09:33:27;5.28;;;4.10;;
75912;SDS011;64592;52.168;21.040;2023-07-02T09:38:29;6.10;;;4.30;;
75912;SDS011;64592;52.168;21.040;2023-07-02T09:43:32;5.55;;;4.03;;
75912;SDS011;64592;52.168;21.040;2023-07-02T09:48:34;5.05;;;3.90;;
75912;SDS011;64592;52.168;21.040;2023-07-02T09:53:36;6.30;;;3.60;;
75912;SDS011;64592;52.168;21.040;2023-07-02T09:58:40;5.70;;;3.47;;
75912;SDS011;64592;52.168;21.040;2023-07-02T10:03:41;5.47;;;4.18;;
75912;SDS011;64592;52.168;21.040;2023-07-02T10:08:52;4.28;;;3.60;;
75912;SDS011;64592;52.168;21.040;2023-07-02T10:13:59;4.38;;;2.97;;
75912;SDS011;64592;52.168;21.040;2023-07-02T10:24:20;5.18;;;3.88;;
75912;SDS011;64592;52.168;21.040;2023-07-02T10:29:24;4.93;;;3.53;;
75912;SDS011;64592;52.168;21.040;2023-07-02T10:34:29;4.70;;;3.35;;
75912;SDS011;64592;52.168;21.040;2023-07-02T10:39:38;4.22;;;3.03;;
75912;SDS011;64592;52.168;21.040;2023-07-02T10:44:49;5.00;;;3.30;;
75912;SDS011;64592;52.168;21.040;2023-07-02T10:49:51;4.95;;;3.15;;
75912;SDS011;64592;52.168;21.040;2023-07-02T10:54:52;4.30;;;2.78;;
75912;SDS011;64592;52.168;21.040;2023-07-02T11:00:04;4.47;;;2.78;;
75912;SDS011;64592;52.168;21.040;2023-07-02T11:05:08;5.53;;;2.90;;
75912;SDS011;64592;52.168;21.040;2023-07-02T11:10:17;4.57;;;3.15;;
75912;SDS011;64592;52.168;21.040;2023-07-02T11:15:21;4.57;;;3.08;;
75912;SDS011;64592;52.168;21.040;2023-07-02T11:20:23;3.83;;;2.85;;
75912;SDS011;64592;52.168;21.040;2023-07-02T11:25:35;3.97;;;3.05;;
75912;SDS011;64592;52.168;21.040;2023-07-02T11:30:45;3.67;;;2.78;;
75912;SDS011;64592;52.168;21.040;2023-07-02T11:35:47;3.83;;;2.83;;
75912;SDS011;64592;52.168;21.040;2023-07-02T11:40:49;4.43;;;2.75;;
75912;SDS011;64592;52.168;21.040;2023-07-02T11:45:52;4.28;;;3.30;;
75912;SDS011;64592;52.168;21.040;2023-07-02T11:50:53;3.35;;;2.50;;
75912;SDS011;64592;52.168;21.040;2023-07-02T11:55:55;4.50;;;2.75;;
75912;SDS011;64592;52.168;21.040;2023-07-02T12:00:58;4.18;;;2.78;;
75912;SDS011;64592;52.168;21.040;2023-07-02T12:06:00;4.38;;;3.38;;
75912;SDS011;64592;52.168;21.040;2023-07-02T12:11:01;3.75;;;2.60;;
75912;SDS011;64592;52.168;21.040;2023-07-02T12:16:04;4.60;;;2.88;;
75912;SDS011;64592;52.168;21.040;2023-07-02T12:21:06;3.95;;;3.00;;
75912;SDS011;64592;52.168;21.040;2023-07-02T12:26:08;6.57;;;3.08;;
75912;SDS011;64592;52.168;21.040;2023-07-02T12:31:11;3.08;;;2.50;;
75912;SDS011;64592;52.168;21.040;2023-07-02T12:36:13;4.10;;;2.55;;
75912;SDS011;64592;52.168;21.040;2023-07-02T12:41:15;4.45;;;2.95;;
75912;SDS011;64592;52.168;21.040;2023-07-02T12:46:18;4.53;;;2.55;;
75912;SDS011;64592;52.168;21.040;2023-07-02T12:51:20;3.10;;;2.10;;
75912;SDS011;64592;52.168;21.040;2023-07-02T12:56:21;3.15;;;2.10;;
75912;SDS011;64592;52.168;21.040;2023-07-02T13:01:24;3.78;;;2.00;;
75912;SDS011;64592;52.168;21.040;2023-07-02T13:06:26;3.70;;;1.85;;
75912;SDS011;64592;52.168;21.040;2023-07-02T13:11:28;2.80;;;1.77;;
75912;SDS011;64592;52.168;21.040;2023-07-02T13:16:31;3.25;;;2.30;;
75912;SDS011;64592;52.168;21.040;2023-07-02T13:21:33;3.03;;;1.95;;
75912;SDS011;64592;52.168;21.040;2023-07-02T13:26:34;2.25;;;1.60;;
75912;SDS011;64592;52.168;21.040;2023-07-02T13:31:37;3.72;;;1.83;;
75912;SDS011;64592;52.168;21.040;2023-07-02T13:36:39;4.47;;;2.13;;
75912;SDS011;64592;52.168;21.040;2023-07-02T13:41:41;4.28;;;2.22;;
75912;SDS011;64592;52.168;21.040;2023-07-02T13:46:44;4.47;;;2.28;;
75912;SDS011;64592;52.168;21.040;2023-07-02T13:51:48;4.82;;;2.47;;
75912;SDS011;64592;52.168;21.040;2023-07-02T13:56:50;3.35;;;1.92;;
75912;SDS011;64592;52.168;21.040;2023-07-02T14:01:54;3.38;;;1.98;;
75912;SDS011;64592;52.168;21.040;2023-07-02T14:06:55;2.50;;;1.98;;
75912;SDS011;64592;52.168;21.040;2023-07-02T14:11:57;4.28;;;2.10;;
75912;SDS011;64592;52.168;21.040;2023-07-02T14:17:00;5.07;;;2.30;;
75912;SDS011;64592;52.168;21.040;2023-07-02T14:22:03;4.07;;;1.90;;
75912;SDS011;64592;52.168;21.040;2023-07-02T14:27:05;3.85;;;2.17;;
75912;SDS011;64592;52.168;21.040;2023-07-02T14:32:08;2.40;;;2.03;;
75912;SDS011;64592;52.168;21.040;2023-07-02T14:37:10;3.97;;;2.10;;
75912;SDS011;64592;52.168;21.040;2023-07-02T14:42:11;3.13;;;2.10;;
75912;SDS011;64592;52.168;21.040;2023-07-02T14:47:14;3.67;;;2.20;;
75912;SDS011;64592;52.168;21.040;2023-07-02T14:52:16;3.45;;;2.50;;
75912;SDS011;64592;52.168;21.040;2023-07-02T14:57:19;6.38;;;2.10;;
75912;SDS011;64592;52.168;21.040;2023-07-02T15:02:23;5.03;;;2.55;;
75912;SDS011;64592;52.168;21.040;2023-07-02T15:07:25;4.53;;;2.30;;
75912;SDS011;64592;52.168;21.040;2023-07-02T15:12:26;3.33;;;2.20;;
75912;SDS011;64592;52.168;21.040;2023-07-02T15:17:30;4.30;;;2.50;;
75912;SDS011;64592;52.168;21.040;2023-07-02T15:22:32;5.03;;;2.28;;
75912;SDS011;64592;52.168;21.040;2023-07-02T15:27:33;2.80;;;1.85;;
75912;SDS011;64592;52.168;21.040;2023-07-02T15:32:36;4.50;;;2.33;;
75912;SDS011;64592;52.168;21.040;2023-07-02T15:37:38;5.47;;;2.63;;
75912;SDS011;64592;52.168;21.040;2023-07-02T15:42:41;3.22;;;2.40;;
75912;SDS011;64592;52.168;21.040;2023-07-02T15:47:44;5.43;;;2.10;;
75912;SDS011;64592;52.168;21.040;2023-07-02T15:52:46;3.25;;;2.20;;
75912;SDS011;64592;52.168;21.040;2023-07-02T15:57:48;2.90;;;2.25;;
75912;SDS011;64592;52.168;21.040;2023-07-02T16:02:51;3.25;;;2.20;;
75912;SDS011;64592;52.168;21.040;2023-07-02T16:07:52;4.03;;;2.40;;
75912;SDS011;64592;52.168;21.040;2023-07-02T16:12:54;3.42;;;2.35;;
75912;SDS011;64592;52.168;21.040;2023-07-02T16:17:57;4.68;;;2.28;;
75912;SDS011;64592;52.168;21.040;2023-07-02T16:22:59;5.57;;;2.60;;
75912;SDS011;64592;52.168;21.040;2023-07-02T16:28:01;8.80;;;2.75;;
75912;SDS011;64592;52.168;21.040;2023-07-02T16:33:04;3.95;;;2.65;;
75912;SDS011;64592;52.168;21.040;2023-07-02T16:38:06;4.75;;;2.47;;
75912;SDS011;64592;52.168;21.040;2023-07-02T16:43:07;5.28;;;2.10;;
75912;SDS011;64592;52.168;21.040;2023-07-02T16:48:11;4.65;;;2.38;;
75912;SDS011;64592;52.168;21.040;2023-07-02T16:53:12;3.00;;;2.10;;
75912;SDS011;64592;52.168;21.040;2023-07-02T16:58:14;4.05;;;2.40;;
75912;SDS011;64592;52.168;21.040;2023-07-02T17:03:17;3.97;;;2.60;;
75912;SDS011;64592;52.168;21.040;2023-07-02T17:08:20;3.00;;;2.28;;
75912;SDS011;64592;52.168;21.040;2023-07-02T17:13:22;5.60;;;2.40;;
75912;SDS011;64592;52.168;21.040;2023-07-02T17:18:25;3.53;;;2.60;;
75912;SDS011;64592;52.168;21.040;2023-07-02T17:23:26;4.38;;;2.88;;
75912;SDS011;64592;52.168;21.040;2023-07-02T17:28:28;4.38;;;2.38;;
75912;SDS011;64592;52.168;21.040;2023-07-02T17:33:32;4.53;;;2.50;;
75912;SDS011;64592;52.168;21.040;2023-07-02T17:38:34;4.93;;;2.47;;
75912;SDS011;64592;52.168;21.040;2023-07-02T17:43:35;3.13;;;2.20;;
75912;SDS011;64592;52.168;21.040;2023-07-02T17:48:38;5.88;;;2.40;;
75912;SDS011;64592;52.168;21.040;2023-07-02T17:53:40;2.55;;;2.13;;
75912;SDS011;64592;52.168;21.040;2023-07-02T17:58:41;3.58;;;2.40;;
75912;SDS011;64592;52.168;21.040;2023-07-02T18:03:45;5.18;;;2.50;;
75912;SDS011;64592;52.168;21.040;2023-07-02T18:08:49;6.68;;;2.47;;
75912;SDS011;64592;52.168;21.040;2023-07-02T18:13:50;6.75;;;2.50;;
75912;SDS011;64592;52.168;21.040;2023-07-02T18:18:53;4.93;;;2.83;;
75912;SDS011;64592;52.168;21.040;2023-07-02T18:23:55;4.03;;;2.60;;
75912;SDS011;64592;52.168;21.040;2023-07-02T18:28:58;3.72;;;2.40;;
75912;SDS011;64592;52.168;21.040;2023-07-02T18:34:01;3.58;;;2.72;;
75912;SDS011;64592;52.168;21.040;2023-07-02T18:39:03;4.82;;;2.75;;
75912;SDS011;64592;52.168;21.040;2023-07-02T18:44:05;6.75;;;2.58;;
75912;SDS011;64592;52.168;21.040;2023-07-02T18:49:08;5.72;;;2.90;;
75912;SDS011;64592;52.168;21.040;2023-07-02T18:54:09;4.05;;;2.65;;
75912;SDS011;64592;52.168;21.040;2023-07-02T18:59:11;4.60;;;2.60;;
75912;SDS011;64592;52.168;21.040;2023-07-02T19:04:14;4.13;;;2.60;;
75912;SDS011;64592;52.168;21.040;2023-07-02T19:09:16;6.63;;;2.80;;
75912;SDS011;64592;52.168;21.040;2023-07-02T19:14:17;6.32;;;2.92;;
75912;SDS011;64592;52.168;21.040;2023-07-02T19:19:21;3.50;;;2.58;;
75912;SDS011;64592;52.168;21.040;2023-07-02T19:24:22;4.72;;;2.70;;
75912;SDS011;64592;52.168;21.040;2023-07-02T19:29:24;6.72;;;2.97;;
75912;SDS011;64592;52.168;21.040;2023-07-02T19:34:28;5.25;;;2.97;;
75912;SDS011;64592;52.168;21.040;2023-07-02T19:39:30;5.38;;;2.83;;
75912;SDS011;64592;52.168;21.040;2023-07-02T19:44:33;4.28;;;2.65;;
75912;SDS011;64592;52.168;21.040;2023-07-02T19:49:37;4.50;;;2.97;;
75912;SDS011;64592;52.168;21.040;2023-07-02T19:54:44;7.47;;;3.28;;
75912;SDS011;64592;52.168;21.040;2023-07-02T19:59:46;5.82;;;3.03;;
75912;SDS011;64592;52.168;21.040;2023-07-02T20:04:56;7.85;;;2.95;;
75912;SDS011;64592;52.168;21.040;2023-07-02T20:09:58;5.18;;;3.15;;
75912;SDS011;64592;52.168;21.040;2023-07-02T20:15:00;6.63;;;3.40;;
75912;SDS011;64592;52.168;21.040;2023-07-02T20:20:05;9.70;;;3.15;;
75912;SDS011;64592;52.168;21.040;2023-07-02T20:25:08;5.30;;;2.97;;
75912;SDS011;64592;52.168;21.040;2023-07-02T20:30:11;5.70;;;3.08;;
75912;SDS011;64592;52.168;21.040;2023-07-02T20:35:14;6.97;;;3.30;;
75912;SDS011;64592;52.168;21.040;2023-07-02T20:40:19;6.75;;;3.08;;
75912;SDS011;64592;52.168;21.040;2023-07-02T20:45:20;6.55;;;2.88;;
75912;SDS011;64592;52.168;21.040;2023-07-02T20:50:24;7.75;;;3.13;;
75912;SDS011;64592;52.168;21.040;2023-07-02T20:55:27;5.82;;;3.00;;
75912;SDS011;64592;52.168;21.040;2023-07-02T21:00:28;7.03;;;3.40;;
75912;SDS011;64592;52.168;21.040;2023-07-02T21:05:31;6.70;;;3.20;;
75912;SDS011;64592;52.168;21.040;2023-07-02T21:10:33;4.35;;;3.03;;
75912;SDS011;64592;52.168;21.040;2023-07-02T21:15:35;6.47;;;3.55;;
75912;SDS011;64592;52.168;21.040;2023-07-02T21:20:41;5.28;;;3.47;;
75912;SDS011;64592;52.168;21.040;2023-07-02T21:25:43;5.35;;;3.20;;
75912;SDS011;64592;52.168;21.040;2023-07-02T21:30:45;5.53;;;3.28;;
75912;SDS011;64592;52.168;21.040;2023-07-02T21:35:48;4.85;;;3.30;;
75912;SDS011;64592;52.168;21.040;2023-07-02T21:40:50;5.10;;;3.33;;
75912;SDS011;64592;52.168;21.040;2023-07-02T21:45:52;7.40;;;3.78;;
75912;SDS011;64592;52.168;21.040;2023-07-02T21:50:55;5.93;;;3.67;;
75912;SDS011;64592;52.168;21.040;2023-07-02T21:55:57;6.47;;;3.83;;
75912;SDS011;64592;52.168;21.040;2023-07-02T22:00:59;4.93;;;3.78;;
75912;SDS011;64592;52.168;21.040;2023-07-02T22:06:02;5.80;;;3.47;;
75912;SDS011;64592;52.168;21.040;2023-07-02T22:11:03;7.43;;;3.88;;
75912;SDS011;64592;52.168;21.040;2023-07-02T22:16:12;6.25;;;3.47;;
75912;SDS011;64592;52.168;21.040;2023-07-02T22:21:15;5.57;;;3.78;;
75912;SDS011;64592;52.168;21.040;2023-07-02T22:26:18;5.28;;;3.53;;
75912;SDS011;64592;52.168;21.040;2023-07-02T22:31:19;5.28;;;3.78;;
75912;SDS011;64592;52.168;21.040;2023-07-02T22:36:22;9.40;;;4.43;;
75912;SDS011;64592;52.168;21.040;2023-07-02T22:41:24;6.50;;;3.70;;
75912;SDS011;64592;52.168;21.040;2023-07-02T22:46:25;7.03;;;4.00;;
75912;SDS011;64592;52.168;21.040;2023-07-02T22:51:30;8.25;;;4.40;;
75912;SDS011;64592;52.168;21.040;2023-07-02T22:56:32;6.70;;;4.10;;
75912;SDS011;64592;52.168;21.040;2023-07-02T23:01:34;9.25;;;4.43;;
75912;SDS011;64592;52.168;21.040;2023-07-02T23:06:37;9.82;;;4.60;;
75912;SDS011;64592;52.168;21.040;2023-07-02T23:11:39;10.60;;;4.97;;
75912;SDS011;64592;52.168;21.040;2023-07-02T23:16:40;12.13;;;4.22;;
75912;SDS011;64592;52.168;21.040;2023-07-02T23:21:44;7.95;;;4.00;;
75912;SDS011;64592;52.168;21.040;2023-07-02T23:26:47;5.13;;;3.95;;
75912;SDS011;64592;52.168;21.040;2023-07-02T23:31:49;7.55;;;4.28;;
75912;SDS011;64592;52.168;21.040;2023-07-02T23:36:52;9.13;;;5.00;;
75912;SDS011;64592;52.168;21.040;2023-07-02T23:41:54;11.02;;;5.35;;
75912;SDS011;64592;52.168;21.040;2023-07-02T23:46:55;8.30;;;4.45;;
75912;SDS011;64592;52.168;21.040;2023-07-02T23:51:59;8.02;;;4.68;;
75912;SDS011;64592;52.168;21.040;2023-07-02T23:57:00;7.72;;;4.57;;
